• Join FlightAware (Why Join?)
  • Login
  • US Flag 
07:19PM EDT


 

Airport Tracker/Info


-or-


 

Live Flight TrackerFlight Track Log ✈ UAL6136 ✈ 30-Apr-2013 ✈ KORD - KCHS

Flight Track Log - Related Links

Times and Time Zones

All times are in EDT time to prevent confusion due to time zone crossing. See the UAL6136 flight status page for this flight to view local times or setup timezone preferences in your user account.

Time Position Orientation Groundspeed Altitude Reporting Facility
EDT Latitude Longitude Course Direction KTS MPH feet Rate Location/Type
12:32PM 41.9333 -87.9000 156° South 171 197 2,400  Level Chicago TRACON
12:33PM 41.8667 -87.8833 169° South 210 242 5,000 1,860 Climbing Chicago TRACON
12:34PM 41.8264 -87.8658 162° South 224 258 6,100 1,680 Climbing Chicago Center
12:35PM 41.7594 -87.8164 151° Southeast 270 311 8,300 2,460 Climbing Chicago Center
12:36PM 41.6750 -87.7558 152° Southeast 285 328 11,200 2,400 Climbing Chicago Center
12:37PM 41.6039 -87.7022 151° Southeast 291 335 13,300 1,440 Climbing Chicago Center
12:38PM 41.5413 -87.4645 156° South  Level Estimated
12:38PM 41.5250 -87.6453 152° Southeast 320 368 14,200  Level Chicago Center
12:39PM 41.4361 -87.5806 151° Southeast 356 410 15,100 1,020 Climbing Chicago Center
12:41PM 41.3364 -87.5567 170° South 364 419 16,400 1,200 Climbing Chicago Center
12:42PM 41.2331 -87.5389 173° South 371 427 17,600 1,200 Climbing Chicago Center
12:43PM 41.1286 -87.5139 170° South 378 435 18,900 1,200 Climbing Chicago Center
12:44PM 41.0014 -87.4744 167° South 391 450 20,200 1,080 Climbing Chicago Center
12:45PM 40.8969 -87.4131 156° South 412 474 21,200 960 Climbing Chicago Center
12:46PM 40.7900 -87.3522 157° South 419 482 22,200 960 Climbing Chicago Center
12:47PM 40.6811 -87.2894 156° South 427 491 23,300 960 Climbing Chicago Center
12:48PM 40.5706 -87.2272 157° South 433 498 24,200 840 Climbing Chicago Center
12:49PM 40.4361 -87.1508 157° South 438 504 25,100 840 Climbing Chicago Center
12:50PM 40.3222 -87.0883 157° South 446 513 26,000 780 Climbing Chicago Center
12:51PM 40.2097 -87.0242 156° South 444 511 26,800 780 Climbing Chicago Center
12:52PM 40.1042 -86.9478 151° Southeast 440 506 27,700 840 Climbing Chicago Center
12:53PM 40.0400 -86.8822 142° Southeast 440 506 28,300 720 Climbing Indianapolis Center
12:54PM 39.9278 -86.7617 141° Southeast 435 501 29,000 300 Climbing Indianapolis Center
12:55PM 39.8311 -86.6583 141° Southeast 442 509 29,000  Level Indianapolis Center
12:56PM 39.7319 -86.5500 140° Southeast 456 525 29,100 480 Climbing Indianapolis Center
12:57PM 39.6314 -86.4436 141° Southeast 462 532 30,000 900 Climbing Indianapolis Center
12:58PM 39.5342 -86.3397 140° Southeast 454 522 31,000 900 Climbing Indianapolis Center
12:59PM 39.4364 -86.2353 140° Southeast 451 519 31,900 840 Climbing Indianapolis Center
01:00PM 39.3375 -86.1317 141° Southeast 453 521 32,800 840 Climbing Indianapolis Center
01:01PM 39.2397 -86.0286 141° Southeast 452 520 33,700 960 Climbing Indianapolis Center
01:02PM 39.1239 -85.9064 141° Southeast 448 516 34,800 600 Climbing Indianapolis Center
01:03PM 39.0264 -85.8053 141° Southeast 447 514 35,000 60 Climbing Indianapolis Center
01:04PM 38.9286 -85.7039 141° Southeast 447 514 35,000  Level Indianapolis Center
01:05PM 38.8317 -85.6031 141° Southeast 447 514 35,000  Level Indianapolis Center
01:06PM 38.7317 -85.4981 141° Southeast 459 528 35,000  Level Indianapolis Center
01:07PM 38.6306 -85.3944 141° Southeast 463 533 35,000  Level Indianapolis Center
01:08PM 38.5289 -85.2897 141° Southeast 466 536 35,000  Level Indianapolis Center
01:09PM 38.4203 -85.1800 142° Southeast 468 539 35,000  Level Indianapolis Center
01:10PM 38.3192 -85.0767 141° Southeast 467 537 35,000  Level Indianapolis Center
01:11PM 38.2031 -84.9558 141° Southeast 463 533 35,000  Level Indianapolis Center
01:12PM 38.1003 -84.8519 141° Southeast 467 537 35,000  Level Indianapolis Center
01:13PM 37.9981 -84.7506 142° Southeast 466 536 35,000  Level Indianapolis Center
01:14PM 37.8961 -84.6489 142° Southeast 466 536 35,000  Level Indianapolis Center
01:15PM 37.7933 -84.5469 142° Southeast 467 537 35,000  Level Indianapolis Center
01:16PM 37.6911 -84.4464 142° Southeast 466 536 35,000  Level Indianapolis Center
01:17PM 37.5714 -84.3269 142° Southeast 469 540 35,000  Level Indianapolis Center
01:18PM 37.4686 -84.2242 142° Southeast 468 539 35,000  Level Indianapolis Center
01:19PM 37.3658 -84.1256 143° Southeast 466 536 35,000  Level Indianapolis Center
01:20PM 37.2639 -84.0233 141° Southeast 467 537 35,000  Level Indianapolis Center
01:21PM 37.1614 -83.9247 143° Southeast 465 535 35,000  Level Indianapolis Center
01:23PM 37.0422 -83.8083 142° Southeast 467 537 35,000  Level Indianapolis Center
01:24PM 36.9397 -83.7092 142° Southeast 465 535 35,000  Level Indianapolis Center
01:25PM 36.8369 -83.6100 142° Southeast 468 539 35,000  Level Indianapolis Center
01:26PM 36.7336 -83.5103 142° Southeast 469 540 35,000  Level Indianapolis Center
01:27PM 36.6314 -83.4128 143° Southeast 467 537 35,000  Level Indianapolis Center
01:28PM 36.5294 -83.3181 143° Southeast 474 545 35,000  Level Atlanta Center
01:29PM 36.4247 -83.2208 143° Southeast 474 545 35,000  Level Atlanta Center
01:30PM 36.3239 -83.1189 141° Southeast 468 539 35,000  Level Atlanta Center
01:31PM 36.2189 -83.0222 143° Southeast 468 539 35,000  Level Atlanta Center
01:32PM 36.1136 -82.9233 143° Southeast 468 539 35,000  Level Atlanta Center
01:33PM 36.0128 -82.8272 142° Southeast 468 539 35,000  Level Atlanta Center
01:34PM 35.9094 -82.7311 143° Southeast 468 539 35,000  Level Atlanta Center
01:35PM 35.8081 -82.6278 140° Southeast 468 539 35,000  Level Atlanta Center
01:36PM 35.7214 -82.5142 133° Southeast 461 531 35,000  Level Atlanta Center
01:37PM 35.6322 -82.3908 132° Southeast 467 537 35,000  Level Atlanta Center
01:38PM 35.5428 -82.2750 133° Southeast 475 547 35,000  Level Atlanta Center
01:39PM 35.4533 -82.1547 132° Southeast 469 540 35,000  Level Atlanta Center
01:40PM 35.3492 -82.0322 136° Southeast 469 540 35,000  Level Atlanta Center
01:41PM 35.2256 -82.0022 169° South 441 507 35,000  Level Atlanta Center
01:42PM 35.1039 -81.9619 165° South 448 516 35,000  Level Atlanta Center
01:43PM 34.9881 -81.9017 157° South 448 516 35,000  Level Atlanta Center
01:44PM 34.8803 -81.8208 148° Southeast 448 516 35,000  Level Atlanta Center
01:45PM 34.7725 -81.7453 150° Southeast 462 532 35,000 -840 Level Atlanta Center
01:47PM 34.5472 -81.5817 149° Southeast 440 506 32,400 -2,100 Descending Jacksonville Center
01:48PM 34.4381 -81.5078 151° Southeast 440 506 28,600 -2,700 Descending Jacksonville Center
01:49PM 34.3267 -81.4267 149° Southeast 450 518 27,000 -2,160 Descending Jacksonville Center
01:50PM 34.2050 -81.3761 161° South 457 526 24,300 -2,880 Descending Jacksonville Center
01:51PM 34.0814 -81.3306 163° South 457 526 21,300 -3,000 Descending Jacksonville Center
01:52PM 33.9783 -81.2622 151° Southeast 445 512 18,300 -3,000 Descending Jacksonville Center
01:53PM 33.8875 -81.1889 146° Southeast 418 481 15,400 -3,000 Descending Jacksonville Center
01:54PM 33.7967 -81.1181 147° Southeast 404 465 12,400 -2,280 Descending Jacksonville Center
01:55PM 33.7103 -81.0450 145° Southeast 387 445 10,900 -720 Descending Jacksonville Center
01:56PM 33.6236 -80.9794 148° Southeast 381 438 11,000  Climbing Jacksonville Center
01:57PM 33.5328 -80.9092 147° Southeast 381 438 11,000  Level Jacksonville Center
01:58PM 33.4483 -80.8414 146° Southeast 381 438 11,000  Level Jacksonville Center
01:59PM 33.3575 -80.7714 147° Southeast 381 438 11,000  Level Jacksonville Center
02:00PM 33.2706 -80.7039 147° Southeast 381 438 11,000 -60 Level Jacksonville Center
02:01PM 33.2106 -80.6086 127° Southeast 361 415 10,900 -540 Descending Jacksonville Center
02:02PM 33.1775 -80.5150 113° Southeast 332 382 10,000 -1,500 Descending Jacksonville Center
02:03PM 33.1486 -80.4239 111° Southeast 302 348 8,000 -1,680 Descending Jacksonville Center
02:04PM 33.1017 -80.3683 135° Southeast 247 284 6,700 -1,500 Descending Jacksonville Center
02:05PM 33.0386 -80.3528 168° South 225 259 5,000 -960 Descending Jacksonville Center
02:06PM 32.9717 -80.3447 174° South 225 259 4,800 -540 Descending Jacksonville Center
02:07PM 32.9069 -80.3367 174° South 236 272 4,000 -480 Descending Jacksonville Center
02:08PM 32.8419 -80.3311 176° South 242 278 3,900 -120 Descending Jacksonville Center
02:10PM 32.8871 -80.0999 79° East  Level Estimated
02:17PM 32.8833 -80.0333 79° East  Level FlightAware Approximate
02:18PM 32.8986 -80.0405 79° East  Level Estimated
02:19PM 32.8986 -80.0405 79° East  Level Estimated
02:20PM 32.8986 -80.0405 79° East  Level Estimated
02:21PM 32.8986 -80.0405 79° East  Level Estimated
02:22PM 32.8986 -80.0405 79° East  Level Estimated
02:23PM 32.8986 -80.0405 79° East  Level Estimated